Muscat, Oman
Current Conditions -  °F | °C
As of 9:50 AM on Sunday 23 Nov 2014 (Local Time) from OOMS Reporting Station
Clear Clear  
Wind Chill: 29°   Ceiling: Unl
Heat Index: 29°   Visibility: 5mi
Dew Point: 10°   Wind: 2mph
Humidity: 30%   Direction: 140°SE
Pressure: 29.97"   Gusts: NA
Location:  23.61°N, 58.54°E
Report Text: OOMS 230550Z 14002KT 8000 NSC 29/10 Q1015 NOSIG
Loading
Personal Weather Stations






























Interactive Weather Map New forecast layout! Learn more

10-Day Weather Forecast

Advertisements
Track Severe Weather on mobile